KBIE/BIE METAR and TAF weather

Enter ICAO airport designator
Station Type Date Time Source
KBIE METAR 2020/02/29 03:15 UTC NOAA

KBIE 290315Z AUTO 07003KT 10SM CLR 01/M02 A3023 RMK AO2 T00101019


Station Type Date Time Source
KBIE Decoded METAR 2020/02/29 03:15 UTC NOAA

Beatrice Municipal, NE, United States (KBIE) 40-18N 096-45W
Feb 28, 2020 - 10:15 PM EST / 2020.02.29 0315 UTC
Wind: from the ENE (070 degrees) at 3 MPH (3 KT):0
Visibility: 10 mile(s):0
Sky conditions: clear
Temperature: 33.8 F (1.0 C)
Dew Point: 28.6 F (-1.9 C)
Relative Humidity: 80%
Pressure (altimeter): 30.23 in. Hg (1023 hPa)
ob: KBIE 290315Z AUTO 07003KT 10SM CLR 01/M02 A3023 RMK AO2 T00101019
cycle: 3

Station Type Date Time Source
KBIE TAF UTC NOAA

Error!

Example: see airport list